Johnson City, TN (37601)

11:55 PM EST on March 03, 2015 (GMT -0500)
ETSU Tree Streets W4BQK | Change Station
CLOSE
Current Station
Personal Weather Station
Location: Johnson City, TN
Elevation: 1703 ft
Nearby Weather Stations
Active Advisory: Winter Storm Watch

Elev 1703 ft 36.31 °N, 82.36 °W | Updated 12 minutes ago

Overcast
Overcast
46.4 °F
Feels Like 46 °F
N
0.0
Wind Variable Wind from SE
Gusts 2.0 mph

Today
High -- | Low -- °F
--% Chance of Precip.
Yesterday
High -- | Low -- °F
Precip. -- in
6:57 AM 6:25 PM
Waxing Gibbous, 98% visible
Pressure 29.98 in
Visibility 1.5 miles
Clouds Few 200 ft
Overcast 3000 ft
Windchill 46 °F
Dew Point 45 °F
Humidity 95%
Rainfall 0.09 in
Snow Depth Not available.
UV 0 out of 12
Pollen 3.10 out of 12
Air Quality Not available.
Flu Activity Not available.
SPECI KTRI 040438Z 00000KT 1 1/2SM -RA BR FEW002 OVC030 08/08 A2998 RMK AO2 RAB38 P0000 T00830078

More Conditions Fewer Conditions

Pressure 29.98 in
Visibility 1.5 miles
Clouds Few 200 ft
Overcast 3000 ft
Windchill 46 °F
Dew Point 45 °F
Humidity 95%
Rainfall 0.09 in
Snow Depth Not available.
UV 0 out of 12
Pollen 3.10 out of 12
Air Quality Not available.
Flu Activity Not available.
SPECI KTRI 040438Z 00000KT 1 1/2SM -RA BR FEW002 OVC030 08/08 A2998 RMK AO2 RAB38 P0000 T00830078

More Conditions Fewer Conditions

10-Day Weather Forecast

Almanac

Astronomy

Mar. 03, 2015 Rise Set
Actual Time
Civil Twilight
Nautical Twilight
Astronomical Twilight
Moon
Length of Visible Light
Length of Day
Tomorrow will be .
, % of the Moon is Illuminated

Today's Extremes

State Highs State Lows

Community

WunderPhotos

Upload Photos

1,802,385 photos uploaded!

WunderBlogs® & News

Nearby

Air Quality

  Air Quality AQ Index Pollutant
Not available.

Snow Depth

Station Depth Elevation

Earthquake Activity

City Distance Mag. Time & Date
Minimum magnitude displayed is 2.5.

Coastal Water Temperatures

Place Temperature

Nearby Weather Stations

Winter Storm Watch
Statement as of 10:42 PM EST on March 03, 2015

... Winter Storm Watch remains in effect from late Wednesday night
through Thursday afternoon...

* event... wintry mix of freezing rain changing to sleet and snow.

* Timing... beginning around midnight Wednesday night and
continuing until 4 PM EST Thursday afternoon.

* Impacts... freezing rain accumulations a quarter of an inch or
less... changing over to sleet and snow with accumulations
generally 2 inches or less.

Precautionary/preparedness actions...

A Winter Storm Watch means there is a potential for significant
snow... sleet... and/or ice accumulations. Future driving
conditions may become hazardous... so continue to monitor the
latest forecasts.